Decoded Metar for LEVC (VALENCIA in SPAIN) (IATA:VLC) | Meteo·Mobile Aviation Weather
aviador You're here:

LEVC Decoded Metar

VALENCIA in SPAIN
Report Time2019-01-21 15:30:00
UTC Time2019-01-21 15:38:56
Flight Rules vfr VFR
WindVRB at 04 kt
Visibility9999 m
Phenomena:N/A
Clouds:Scattered 040 Hf
Expected CloudBase > 6,400 ft AGL from Temp-Dew spread
CeilingNone
Temp14°C (ISA -1)
Dew Point-2°C (33% RH)
AAT10.3°C
QNH1017 hPa
Density Alt72 ft
Elevation203 ft
Report Wrong Elevation
Raw Report
METAR LEVC 211530Z VRB04KT 9999 SCT040 14/M02 Q1017 NOSIG=

Extra information for LEVC:More info

Metar Taf Metar & Taf Last 4 Metars F.Rules Stats Wind Profile Meteogram Temp Stats Airport Information Weather charts Add Link Nearby VenuesMetar ALERT Operation Metar Decoded Social comments

Webcam Valencia